Time;durP1;ratioP1;P1;durP2;ratioP2;P2;SDS_P1;SDS_P2;PMS_P1;PMS_P2;Temp;Humidity;BMP_temperature;BMP_pressure;BME280_temperature;BME280_humidity;BME280_pressure;Samples;Min_cycle;Max_cycle;Signal;HPM_P1;HPM_P2
2023/07/23 00:00:14;;;;;;;8.27;4.60;;;;;;;;;;5075725;28;20020;-73
2023/07/23 00:02:39;;;;;;;12.35;4.32;;;;;;;;;;5075369;28;20385;-72
2023/07/23 00:05:04;;;;;;;8.35;4.20;;;;;;;;;;5075575;28;20163;-73
2023/07/23 00:07:30;;;;;;;9.75;5.45;;;;;;;;;;5075480;28;20035;-72
2023/07/23 00:09:55;;;;;;;10.60;4.82;;;;;;;;;;5057405;28;20509;-73
2023/07/23 00:12:20;;;;;;;8.48;4.72;;;;;;;;;;5074484;28;20028;-72
2023/07/23 00:14:46;;;;;;;9.40;4.53;;;;;;;;;;5075158;28;20031;-73
2023/07/23 00:17:11;;;;;;;10.10;5.55;;;;;;;;;;5075673;28;20047;-72
2023/07/23 00:19:36;;;;;;;9.93;3.90;;;;;;;;;;5056445;28;20040;-72
2023/07/23 00:22:02;;;;;;;9.13;4.72;;;;;;;;;;5074947;28;20078;-72
2023/07/23 00:24:27;;;;;;;12.18;4.93;;;;;;;;;;5057281;28;20031;-72
2023/07/23 00:26:53;;;;;;;9.45;4.20;;;;;;;;;;5075024;28;20028;-73
2023/07/23 00:29:18;;;;;;;8.65;4.70;;;;;;;;;;5056814;28;20033;-73
2023/07/23 00:31:43;;;;;;;10.90;4.80;;;;;;;;;;5074832;28;20016;-72
2023/07/23 00:34:09;;;;;;;13.43;6.28;;;;;;;;;;5074827;28;20031;-73
2023/07/23 00:36:34;;;;;;;8.52;4.07;;;;;;;;;;5074693;28;20020;-72
2023/07/23 00:38:59;;;;;;;8.20;4.68;;;;;;;;;;5056779;28;20393;-72
2023/07/23 00:41:25;;;;;;;7.93;4.32;;;;;;;;;;5056301;28;20024;-72
2023/07/23 00:43:50;;;;;;;13.23;4.95;;;;;;;;;;5074763;28;20031;-72
2023/07/23 00:46:15;;;;;;;12.32;4.47;;;;;;;;;;5057000;28;20440;-72
2023/07/23 00:48:41;;;;;;;15.00;5.38;;;;;;;;;;5057834;28;20024;-72
2023/07/23 00:51:06;;;;;;;10.82;5.15;;;;;;;;;;5073968;28;20432;-73
2023/07/23 00:53:31;;;;;;;9.13;4.53;;;;;;;;;;5058147;28;20385;-72
2023/07/23 00:55:58;;;;;;;11.07;5.03;;;;;;;;;;5056371;28;20028;-72
2023/07/23 00:58:24;;;;;;;10.15;4.80;;;;;;;;;;5056697;28;20405;-72
2023/07/23 01:00:50;;;;;;;9.63;5.35;;;;;;;;;;5073847;28;20030;-72
2023/07/23 01:03:15;;;;;;;19.75;6.32;;;;;;;;;;5074317;28;20103;-72
2023/07/23 01:05:43;;;;;;;12.32;5.65;;;;;;;;;;5074005;28;20063;-73
2023/07/23 01:08:09;;;;;;;13.07;5.57;;;;;;;;;;5056275;28;20028;-72
2023/07/23 01:10:34;;;;;;;11.48;5.25;;;;;;;;;;5056283;28;20028;-72
2023/07/23 01:13:00;;;;;;;11.55;6.68;;;;;;;;;;5055523;28;20116;-72
2023/07/23 01:15:26;;;;;;;9.77;5.82;;;;;;;;;;5056035;28;20025;-72
2023/07/23 01:17:52;;;;;;;15.00;6.15;;;;;;;;;;5056262;28;20095;-73
2023/07/23 01:20:18;;;;;;;13.40;6.05;;;;;;;;;;5055751;28;20029;-72
2023/07/23 01:22:43;;;;;;;9.30;5.78;;;;;;;;;;5055587;28;20455;-72
2023/07/23 01:28:30;;;;;;;13.68;7.25;;;;;;;;;;5074200;28;20097;-72
2023/07/23 01:30:55;;;;;;;22.48;8.57;;;;;;;;;;5055388;28;20485;-72
2023/07/23 01:33:22;;;;;;;14.88;8.07;;;;;;;;;;5073778;28;20052;-73
2023/07/23 01:35:48;;;;;;;17.40;8.65;;;;;;;;;;5056068;28;20021;-72
2023/07/23 01:38:14;;;;;;;12.85;7.00;;;;;;;;;;5073454;28;20020;-73
2023/07/23 01:40:40;;;;;;;13.43;7.47;;;;;;;;;;5055152;28;20039;-72
2023/07/23 01:43:06;;;;;;;17.25;9.15;;;;;;;;;;5039140;28;20066;-73
2023/07/23 01:45:31;;;;;;;14.25;7.50;;;;;;;;;;5073609;28;20413;-73
2023/07/23 01:47:57;;;;;;;17.10;8.32;;;;;;;;;;5073218;28;20397;-72
2023/07/23 01:50:22;;;;;;;17.15;9.25;;;;;;;;;;5055331;28;20029;-72
2023/07/23 01:52:48;;;;;;;19.10;9.60;;;;;;;;;;5073313;28;20466;-73
2023/07/23 01:55:13;;;;;;;20.40;9.77;;;;;;;;;;5073024;28;20050;-72
2023/07/23 01:57:38;;;;;;;23.10;10.35;;;;;;;;;;5055117;28;20021;-73
2023/07/23 02:00:04;;;;;;;17.10;9.23;;;;;;;;;;5055032;28;20024;-73
2023/07/23 02:02:29;;;;;;;23.10;10.63;;;;;;;;;;5054753;28;20028;-73
2023/07/23 02:04:55;;;;;;;20.45;9.60;;;;;;;;;;5073082;28;20393;-73
2023/07/23 02:07:20;;;;;;;22.00;9.68;;;;;;;;;;5073219;28;20032;-73
2023/07/23 02:09:49;;;;;;;20.10;10.25;;;;;;;;;;5072379;28;20074;-73
2023/07/23 02:12:15;;;;;;;23.58;10.95;;;;;;;;;;5055445;28;20063;-73
2023/07/23 02:14:40;;;;;;;18.27;11.07;;;;;;;;;;5054857;28;20016;-73
2023/07/23 02:17:06;;;;;;;22.83;10.63;;;;;;;;;;5055549;28;20032;-72
2023/07/23 02:19:31;;;;;;;21.40;12.20;;;;;;;;;;5054877;28;20470;-72
2023/07/23 02:24:24;;;;;;;23.65;11.85;;;;;;;;;;5049928;28;20055;-72
2023/07/23 02:26:50;;;;;;;20.20;11.35;;;;;;;;;;5052812;28;20025;-73
2023/07/23 02:29:15;;;;;;;21.80;11.43;;;;;;;;;;5052688;28;20029;-73
2023/07/23 02:31:41;;;;;;;22.80;10.77;;;;;;;;;;5053016;28;20374;-73
2023/07/23 02:34:06;;;;;;;20.80;9.68;;;;;;;;;;5051996;28;20033;-73
2023/07/23 02:36:31;;;;;;;20.10;11.27;;;;;;;;;;5052707;28;20021;-73
2023/07/23 02:38:57;;;;;;;18.35;10.35;;;;;;;;;;5052595;28;20053;-73
2023/07/23 02:41:23;;;;;;;19.20;11.05;;;;;;;;;;5052685;28;20430;-72
2023/07/23 02:43:48;;;;;;;21.92;11.90;;;;;;;;;;5050803;28;20063;-73
2023/07/23 02:46:13;;;;;;;23.23;12.02;;;;;;;;;;5067636;28;20039;-72
2023/07/23 02:48:39;;;;;;;24.10;12.10;;;;;;;;;;5052727;28;20108;-73
2023/07/23 02:51:04;;;;;;;22.58;11.23;;;;;;;;;;5052455;28;20017;-73
2023/07/23 02:53:29;;;;;;;22.25;12.63;;;;;;;;;;5052507;28;20488;-73
2023/07/23 02:55:54;;;;;;;23.42;13.18;;;;;;;;;;5052086;28;20017;-73
2023/07/23 02:58:20;;;;;;;26.92;12.68;;;;;;;;;;5052188;28;20416;-73
2023/07/23 03:00:45;;;;;;;30.13;15.60;;;;;;;;;;5052670;28;20028;-73
2023/07/23 03:03:10;;;;;;;25.80;14.30;;;;;;;;;;5067889;28;20025;-73
2023/07/23 03:05:36;;;;;;;26.88;15.18;;;;;;;;;;5051302;28;20540;-72
2023/07/23 03:08:02;;;;;;;31.25;14.82;;;;;;;;;;5052008;28;20103;-73
2023/07/23 03:10:28;;;;;;;28.75;13.90;;;;;;;;;;5051038;28;20021;-73
2023/07/23 03:12:53;;;;;;;28.23;14.23;;;;;;;;;;5068075;28;20067;-73
2023/07/23 03:15:19;;;;;;;26.65;15.10;;;;;;;;;;5055485;28;20029;-73
2023/07/23 03:17:44;;;;;;;28.17;13.60;;;;;;;;;;5055438;28;20063;-73
2023/07/23 03:20:10;;;;;;;28.58;14.90;;;;;;;;;;5056057;28;20017;-73
2023/07/23 03:22:40;;;;;;;25.25;14.60;;;;;;;;;;5056191;28;20116;-73
2023/07/23 03:25:05;;;;;;;25.65;14.38;;;;;;;;;;5071753;28;20044;-73
2023/07/23 03:27:30;;;;;;;27.20;14.82;;;;;;;;;;5071188;28;20029;-73
2023/07/23 03:29:56;;;;;;;26.17;14.52;;;;;;;;;;5056161;28;20110;-73
2023/07/23 03:32:21;;;;;;;26.70;14.70;;;;;;;;;;5055885;28;20032;-73
2023/07/23 03:34:46;;;;;;;28.65;14.60;;;;;;;;;;5071658;28;20409;-73
2023/07/23 03:37:11;;;;;;;28.73;15.70;;;;;;;;;;5055844;28;20074;-73
2023/07/23 03:39:37;;;;;;;26.48;13.90;;;;;;;;;;5056100;28;20394;-73
2023/07/23 03:42:02;;;;;;;25.25;14.68;;;;;;;;;;5055474;28;20103;-73
2023/07/23 03:44:28;;;;;;;25.40;15.18;;;;;;;;;;5070796;28;20083;-73
2023/07/23 03:47:09;;;;;;;25.75;14.02;;;;;;;;;;5070949;28;20027;-73
2023/07/23 03:49:35;;;;;;;28.20;14.27;;;;;;;;;;5071220;28;20021;-73
2023/07/23 03:52:00;;;;;;;25.77;14.20;;;;;;;;;;5055505;28;20029;-73
2023/07/23 03:54:26;;;;;;;29.83;14.05;;;;;;;;;;5070777;28;20021;-73
2023/07/23 03:56:52;;;;;;;23.92;13.10;;;;;;;;;;5055822;28;20028;-73
2023/07/23 03:59:17;;;;;;;26.77;15.13;;;;;;;;;;5070254;28;20470;-73
2023/07/23 04:01:42;;;;;;;32.28;15.35;;;;;;;;;;5055608;28;20056;-73
2023/07/23 04:04:08;;;;;;;23.77;13.90;;;;;;;;;;5055055;28;20047;-73
2023/07/23 04:06:33;;;;;;;26.45;13.88;;;;;;;;;;5055420;28;20029;-73
2023/07/23 04:08:58;;;;;;;26.98;14.18;;;;;;;;;;5070959;28;20032;-73
2023/07/23 04:11:23;;;;;;;24.25;13.93;;;;;;;;;;5054877;28;20050;-73
2023/07/23 04:13:50;;;;;;;23.83;12.65;;;;;;;;;;5054774;28;20502;-73
2023/07/23 04:16:15;;;;;;;22.98;13.48;;;;;;;;;;5070621;28;20029;-73
2023/07/23 04:18:47;;;;;;;25.20;12.43;;;;;;;;;;5055306;28;20090;-73
2023/07/23 04:21:14;;;;;;;21.58;10.73;;;;;;;;;;5054923;28;20107;-73
2023/07/23 04:23:39;;;;;;;16.98;8.98;;;;;;;;;;5053191;28;20035;-73
2023/07/23 04:26:04;;;;;;;18.50;8.88;;;;;;;;;;5054429;28;20029;-73
2023/07/23 04:28:30;;;;;;;13.27;6.78;;;;;;;;;;5054845;28;20029;-73
2023/07/23 04:30:55;;;;;;;10.70;6.43;;;;;;;;;;5054685;28;20016;-73
2023/07/23 04:33:20;;;;;;;9.43;5.35;;;;;;;;;;5054527;28;20556;-73
2023/07/23 04:35:45;;;;;;;7.97;4.22;;;;;;;;;;5054979;28;20029;-73
2023/07/23 04:38:11;;;;;;;6.95;3.40;;;;;;;;;;5069818;28;20047;-73
2023/07/23 04:40:36;;;;;;;8.90;3.78;;;;;;;;;;5054868;28;20029;-73
2023/07/23 04:43:01;;;;;;;6.72;3.10;;;;;;;;;;5054776;28;20028;-73
2023/07/23 04:45:27;;;;;;;8.80;3.30;;;;;;;;;;5054171;28;20032;-73
2023/07/23 04:47:52;;;;;;;5.45;3.13;;;;;;;;;;5054747;28;20032;-73
2023/07/23 04:50:17;;;;;;;5.97;3.47;;;;;;;;;;5053693;28;20021;-73
2023/07/23 04:52:42;;;;;;;13.15;3.63;;;;;;;;;;5054630;28;20052;-73
2023/07/23 04:55:08;;;;;;;5.55;3.13;;;;;;;;;;5069925;28;20083;-72
2023/07/23 04:57:34;;;;;;;7.40;3.28;;;;;;;;;;5054388;28;20028;-72
2023/07/23 04:59:59;;;;;;;4.63;3.00;;;;;;;;;;5069212;28;20389;-73
2023/07/23 05:02:24;;;;;;;7.72;3.55;;;;;;;;;;5054348;28;20116;-72
2023/07/23 05:04:49;;;;;;;6.22;2.95;;;;;;;;;;5053943;28;20047;-72
2023/07/23 05:07:15;;;;;;;6.20;2.78;;;;;;;;;;5054336;28;20029;-73
2023/07/23 05:09:43;;;;;;;4.00;2.20;;;;;;;;;;5051545;28;20037;-73
2023/07/23 05:12:08;;;;;;;3.85;2.22;;;;;;;;;;5054140;28;20497;-72
2023/07/23 05:14:35;;;;;;;7.28;2.50;;;;;;;;;;5053151;28;20036;-72
2023/07/23 05:17:00;;;;;;;3.58;2.03;;;;;;;;;;5054295;28;20021;-72
2023/07/23 05:19:26;;;;;;;3.42;1.67;;;;;;;;;;5054128;28;20021;-72
2023/07/23 05:21:51;;;;;;;3.97;2.58;;;;;;;;;;5069555;28;20082;-72
2023/07/23 05:24:16;;;;;;;2.80;1.70;;;;;;;;;;5053411;28;20409;-72
2023/07/23 05:26:42;;;;;;;4.18;2.08;;;;;;;;;;5054158;28;20025;-72
2023/07/23 05:29:07;;;;;;;2.42;1.77;;;;;;;;;;5054049;28;20493;-72
2023/07/23 05:31:32;;;;;;;2.75;1.73;;;;;;;;;;5054174;28;20032;-72
2023/07/23 05:33:59;;;;;;;5.05;1.80;;;;;;;;;;5053573;28;20049;-73
2023/07/23 05:36:24;;;;;;;3.63;1.83;;;;;;;;;;5052987;28;20489;-72
2023/07/23 05:38:49;;;;;;;2.45;1.52;;;;;;;;;;5053863;28;20032;-72
2023/07/23 05:41:14;;;;;;;4.43;1.73;;;;;;;;;;5053755;28;20013;-72
2023/07/23 05:43:40;;;;;;;3.03;1.80;;;;;;;;;;5053164;28;20024;-72
2023/07/23 05:46:05;;;;;;;2.30;1.77;;;;;;;;;;5053700;28;20031;-72
2023/07/23 05:48:30;;;;;;;2.63;1.65;;;;;;;;;;5053656;28;20028;-73
2023/07/23 05:50:56;;;;;;;2.28;1.60;;;;;;;;;;5053610;28;20021;-72
2023/07/23 05:53:21;;;;;;;2.50;1.85;;;;;;;;;;5051655;28;20028;-72
2023/07/23 05:55:46;;;;;;;2.45;1.63;;;;;;;;;;5069028;28;20054;-72
2023/07/23 05:58:11;;;;;;;2.55;1.80;;;;;;;;;;5053787;28;20429;-73
2023/07/23 06:00:37;;;;;;;3.58;2.17;;;;;;;;;;5053810;28;20113;-72
2023/07/23 06:03:02;;;;;;;2.20;1.58;;;;;;;;;;5053378;28;20028;-73
2023/07/23 06:05:27;;;;;;;2.72;2.03;;;;;;;;;;5069033;28;20024;-73
2023/07/23 06:07:52;;;;;;;3.08;1.83;;;;;;;;;;5052855;28;20025;-73
2023/07/23 06:10:18;;;;;;;2.75;2.10;;;;;;;;;;5053580;28;20079;-73
2023/07/23 06:12:43;;;;;;;2.63;1.65;;;;;;;;;;5053175;28;20031;-73
2023/07/23 06:15:09;;;;;;;2.60;1.95;;;;;;;;;;5053093;28;20047;-73
2023/07/23 06:17:34;;;;;;;2.70;2.15;;;;;;;;;;5051930;28;20028;-73
2023/07/23 06:20:00;;;;;;;3.13;2.22;;;;;;;;;;5068723;28;20021;-73
2023/07/23 06:22:25;;;;;;;3.55;2.22;;;;;;;;;;5053081;28;20099;-73
2023/07/23 06:24:50;;;;;;;2.95;2.03;;;;;;;;;;5053396;28;20033;-73
2023/07/23 06:27:16;;;;;;;7.70;2.53;;;;;;;;;;5068776;28;20021;-73
2023/07/23 06:29:41;;;;;;;3.75;2.13;;;;;;;;;;5052450;28;20025;-73
2023/07/23 06:32:08;;;;;;;4.28;2.40;;;;;;;;;;5053255;28;20020;-72
2023/07/23 06:34:33;;;;;;;3.13;2.30;;;;;;;;;;5053020;28;20021;-73
2023/07/23 06:36:58;;;;;;;3.88;2.22;;;;;;;;;;5053419;28;20031;-72
2023/07/23 06:39:24;;;;;;;3.60;2.42;;;;;;;;;;5052496;28;20021;-72
2023/07/23 06:41:49;;;;;;;4.25;2.83;;;;;;;;;;5068301;28;20112;-72
2023/07/23 06:44:14;;;;;;;4.88;2.58;;;;;;;;;;5052947;28;20071;-72
2023/07/23 06:46:39;;;;;;;3.45;2.22;;;;;;;;;;5051565;28;20397;-72
2023/07/23 06:49:05;;;;;;;3.13;2.00;;;;;;;;;;5056065;28;20367;-72
2023/07/23 06:51:30;;;;;;;3.17;2.28;;;;;;;;;;5056911;28;20017;-72
2023/07/23 06:53:55;;;;;;;4.47;2.25;;;;;;;;;;5056281;28;20029;-72
2023/07/23 06:56:20;;;;;;;3.08;2.25;;;;;;;;;;5055689;28;20029;-72
2023/07/23 06:58:46;;;;;;;5.53;2.17;;;;;;;;;;5048368;28;20037;-72
2023/07/23 07:01:11;;;;;;;3.38;1.83;;;;;;;;;;5039076;28;20033;-71
2023/07/23 07:03:37;;;;;;;3.05;2.35;;;;;;;;;;5039425;28;20028;-72
2023/07/23 07:06:03;;;;;;;5.35;2.95;;;;;;;;;;5025686;28;20022;-72
2023/07/23 07:08:29;;;;;;;6.60;2.83;;;;;;;;;;5034413;28;20026;-72
2023/07/23 07:11:02;;;;;;;7.22;3.38;;;;;;;;;;5041899;28;20075;-72
2023/07/23 07:13:28;;;;;;;9.57;3.75;;;;;;;;;;5037623;28;20026;-72
2023/07/23 07:15:54;;;;;;;6.85;3.85;;;;;;;;;;5029936;28;20030;-71
2023/07/23 07:18:19;;;;;;;7.65;3.15;;;;;;;;;;5021158;28;20104;-72
2023/07/23 07:20:45;;;;;;;8.15;4.40;;;;;;;;;;5021809;28;20026;-72
2023/07/23 07:23:10;;;;;;;9.25;3.60;;;;;;;;;;5033723;28;20053;-72
2023/07/23 07:25:38;;;;;;;8.90;4.53;;;;;;;;;;5026687;28;20495;-72
2023/07/23 07:28:03;;;;;;;6.85;3.58;;;;;;;;;;5020938;28;20061;-73
2023/07/23 07:30:32;;;;;;;9.82;4.05;;;;;;;;;;5023433;28;20067;-72
2023/07/23 07:32:57;;;;;;;10.20;4.55;;;;;;;;;;5021593;28;20061;-72
2023/07/23 07:35:22;;;;;;;10.32;4.43;;;;;;;;;;5025736;28;20068;-72
2023/07/23 07:37:47;;;;;;;7.43;4.32;;;;;;;;;;5023014;28;20021;-72
2023/07/23 07:40:13;;;;;;;11.98;5.10;;;;;;;;;;5019162;28;20021;-72
2023/07/23 07:42:40;;;;;;;11.10;4.28;;;;;;;;;;5026086;28;20021;-71
2023/07/23 07:45:06;;;;;;;10.02;4.18;;;;;;;;;;5032078;28;20091;-72
2023/07/23 07:47:31;;;;;;;11.38;5.35;;;;;;;;;;5024685;28;20026;-72
2023/07/23 07:49:56;;;;;;;8.32;4.43;;;;;;;;;;5021843;28;20033;-74
2023/07/23 07:52:22;;;;;;;12.52;4.63;;;;;;;;;;5026146;28;20109;-72
2023/07/23 07:54:47;;;;;;;7.82;4.18;;;;;;;;;;5022486;28;20483;-72
2023/07/23 07:57:13;;;;;;;9.77;4.43;;;;;;;;;;5027333;28;20030;-72
2023/07/23 07:59:38;;;;;;;10.05;4.82;;;;;;;;;;5036459;28;20486;-73
2023/07/23 08:02:04;;;;;;;10.95;4.95;;;;;;;;;;5018663;28;20029;-73
2023/07/23 08:04:29;;;;;;;9.18;5.03;;;;;;;;;;5041767;28;20030;-72
2023/07/23 08:06:55;;;;;;;9.80;5.50;;;;;;;;;;5026750;28;20022;-73
2023/07/23 08:09:21;;;;;;;12.60;5.63;;;;;;;;;;5019491;28;20052;-72
2023/07/23 08:11:47;;;;;;;11.52;5.50;;;;;;;;;;5037834;28;20034;-73
2023/07/23 08:14:13;;;;;;;11.98;5.88;;;;;;;;;;5031770;28;20040;-72
2023/07/23 08:16:39;;;;;;;13.63;6.38;;;;;;;;;;5023600;28;20025;-72
2023/07/23 08:19:05;;;;;;;11.00;6.03;;;;;;;;;;5019850;28;20100;-72
2023/07/23 08:21:30;;;;;;;10.30;5.93;;;;;;;;;;5025581;28;20155;-73
2023/07/23 08:23:56;;;;;;;15.35;5.60;;;;;;;;;;5038525;28;20037;-73
2023/07/23 08:26:22;;;;;;;9.30;5.53;;;;;;;;;;5022747;28;20026;-72
2023/07/23 08:28:51;;;;;;;8.65;5.85;;;;;;;;;;5039360;28;20034;-72
2023/07/23 08:31:18;;;;;;;10.52;6.22;;;;;;;;;;5034524;28;20048;-72
2023/07/23 08:33:46;;;;;;;8.93;5.57;;;;;;;;;;5067314;28;20389;-72
2023/07/23 08:36:11;;;;;;;9.82;5.05;;;;;;;;;;5037345;28;20029;-73
2023/07/23 08:38:37;;;;;;;10.65;6.38;;;;;;;;;;5069603;28;20394;-73
2023/07/23 08:41:03;;;;;;;8.93;5.22;;;;;;;;;;5055092;28;20044;-72
2023/07/23 08:44:00;;;;;;;11.32;5.53;;;;;;;;;;5052957;28;20084;-73
2023/07/23 08:46:26;;;;;;;8.02;4.43;;;;;;;;;;5070268;28;20028;-73
2023/07/23 08:48:55;;;;;;;9.30;4.95;;;;;;;;;;5054896;28;20572;-72
2023/07/23 08:51:20;;;;;;;7.20;4.90;;;;;;;;;;5053861;28;20120;-73
2023/07/23 08:53:48;;;;;;;8.93;5.20;;;;;;;;;;5069981;28;20048;-73
2023/07/23 08:56:14;;;;;;;7.43;4.72;;;;;;;;;;5070119;28;20021;-73
2023/07/23 08:58:40;;;;;;;7.38;5.40;;;;;;;;;;5069721;28;20028;-73
2023/07/23 09:01:06;;;;;;;8.65;5.63;;;;;;;;;;5069718;28;20028;-73
2023/07/23 09:03:33;;;;;;;7.55;5.20;;;;;;;;;;5054473;28;20074;-73
2023/07/23 09:05:58;;;;;;;8.88;4.90;;;;;;;;;;5053975;28;20108;-73
2023/07/23 09:08:23;;;;;;;8.32;5.35;;;;;;;;;;5054838;28;20100;-73
2023/07/23 09:10:48;;;;;;;5.88;3.78;;;;;;;;;;5055479;28;20048;-73
2023/07/23 09:13:14;;;;;;;9.98;5.25;;;;;;;;;;5055567;28;20029;-71
2023/07/23 09:15:57;;;;;;;7.93;4.60;;;;;;;;;;5070105;28;20025;-73
2023/07/23 09:18:22;;;;;;;10.07;5.63;;;;;;;;;;5054393;28;20024;-73
2023/07/23 09:20:48;;;;;;;9.15;5.00;;;;;;;;;;5054718;28;20086;-72
2023/07/23 09:23:14;;;;;;;8.43;5.25;;;;;;;;;;5052512;28;20083;-72
2023/07/23 09:25:43;;;;;;;8.32;4.95;;;;;;;;;;5052924;28;20437;-73
2023/07/23 09:28:09;;;;;;;8.27;4.85;;;;;;;;;;5054063;28;20025;-72
2023/07/23 09:30:35;;;;;;;11.93;5.30;;;;;;;;;;5052286;28;20536;-72
2023/07/23 09:33:06;;;;;;;8.20;5.22;;;;;;;;;;5053750;28;20079;-72
2023/07/23 09:35:31;;;;;;;9.65;5.45;;;;;;;;;;5054265;28;20021;-73
2023/07/23 09:37:58;;;;;;;12.90;6.35;;;;;;;;;;5054078;28;20027;-71
2023/07/23 09:40:37;;;;;;;10.52;5.28;;;;;;;;;;5068627;28;20466;-72
2023/07/23 09:43:02;;;;;;;9.35;4.85;;;;;;;;;;5052330;28;20512;-73
2023/07/23 09:45:35;;;;;;;9.27;5.25;;;;;;;;;;5068989;28;20029;-72
2023/07/23 09:48:01;;;;;;;9.38;4.68;;;;;;;;;;5035810;28;20032;-72
2023/07/23 09:50:26;;;;;;;9.55;5.70;;;;;;;;;;5052371;28;20474;-72
2023/07/23 09:52:52;;;;;;;10.82;6.18;;;;;;;;;;5069350;28;20035;-72
2023/07/23 09:55:21;;;;;;;11.18;5.57;;;;;;;;;;5053213;28;20055;-72
2023/07/23 09:57:50;;;;;;;11.32;5.57;;;;;;;;;;5052477;28;20588;-72
2023/07/23 10:00:16;;;;;;;11.88;5.43;;;;;;;;;;5068293;28;20025;-71
2023/07/23 10:02:42;;;;;;;11.95;5.15;;;;;;;;;;5069151;28;20094;-71
2023/07/23 10:05:10;;;;;;;9.60;6.22;;;;;;;;;;5053031;28;20470;-71
2023/07/23 10:07:38;;;;;;;9.43;5.63;;;;;;;;;;5052842;28;20098;-72
2023/07/23 10:10:03;;;;;;;12.40;6.63;;;;;;;;;;5068690;28;20056;-72
2023/07/23 10:12:29;;;;;;;11.90;6.22;;;;;;;;;;5053518;28;20481;-71
2023/07/23 10:14:55;;;;;;;10.52;5.82;;;;;;;;;;5053405;28;20033;-71
2023/07/23 10:17:20;;;;;;;12.35;5.97;;;;;;;;;;5051563;28;20110;-71
2023/07/23 10:19:46;;;;;;;10.50;5.93;;;;;;;;;;5053166;28;20477;-70
2023/07/23 10:22:12;;;;;;;10.60;5.60;;;;;;;;;;5068249;28;20024;-71
2023/07/23 10:24:40;;;;;;;8.82;5.32;;;;;;;;;;5052875;28;20545;-71
2023/07/23 10:27:10;;;;;;;9.90;5.28;;;;;;;;;;5051643;28;20515;-70
2023/07/23 10:29:36;;;;;;;13.13;5.95;;;;;;;;;;5069002;28;20429;-71
2023/07/23 10:32:24;;;;;;;10.10;5.80;;;;;;;;;;5052634;28;20107;-71
2023/07/23 10:34:49;;;;;;;9.20;5.05;;;;;;;;;;5068433;28;20478;-71
2023/07/23 10:37:18;;;;;;;10.10;5.45;;;;;;;;;;5067608;28;20040;-71
2023/07/23 10:39:45;;;;;;;12.02;5.45;;;;;;;;;;5068419;28;20490;-71
2023/07/23 10:42:31;;;;;;;9.98;6.13;;;;;;;;;;5052837;28;20059;-71
2023/07/23 10:45:14;;;;;;;9.00;4.88;;;;;;;;;;5052811;28;20433;-71
2023/07/23 10:47:46;;;;;;;9.57;5.40;;;;;;;;;;5068522;28;20028;-71
2023/07/23 10:50:12;;;;;;;11.95;6.38;;;;;;;;;;5052113;28;20028;-71
2023/07/23 10:52:38;;;;;;;8.63;5.88;;;;;;;;;;5052787;28;20024;-71
2023/07/23 10:55:04;;;;;;;9.73;5.82;;;;;;;;;;5053068;28;20021;-71
2023/07/23 10:57:30;;;;;;;13.70;7.53;;;;;;;;;;5051532;28;20148;-71
2023/07/23 10:59:56;;;;;;;10.40;5.65;;;;;;;;;;5051629;28;20467;-71
2023/07/23 11:02:27;;;;;;;9.70;6.93;;;;;;;;;;5051707;28;20025;-72
2023/07/23 11:04:57;;;;;;;11.65;5.47;;;;;;;;;;5068408;28;20017;-71
2023/07/23 11:07:27;;;;;;;11.77;6.55;;;;;;;;;;5067961;28;20025;-72
2023/07/23 11:09:54;;;;;;;10.63;5.70;;;;;;;;;;5068019;28;20413;-72
2023/07/23 11:12:19;;;;;;;11.68;6.53;;;;;;;;;;5052533;28;20410;-72
2023/07/23 11:14:45;;;;;;;17.63;6.82;;;;;;;;;;5052655;28;20029;-72
2023/07/23 11:17:10;;;;;;;11.10;6.07;;;;;;;;;;5051880;28;20032;-72
2023/07/23 11:19:35;;;;;;;10.57;6.93;;;;;;;;;;5052600;28;20079;-72
2023/07/23 11:22:03;;;;;;;13.63;5.70;;;;;;;;;;5047191;28;20043;-72
2023/07/23 11:24:30;;;;;;;11.00;5.57;;;;;;;;;;5015035;28;20410;-72
2023/07/23 11:26:57;;;;;;;10.30;5.65;;;;;;;;;;5032763;28;20391;-72
2023/07/23 11:29:24;;;;;;;8.05;4.75;;;;;;;;;;5037364;28;20017;-72
2023/07/23 11:31:50;;;;;;;8.82;5.07;;;;;;;;;;5047825;28;20098;-72
2023/07/23 11:34:16;;;;;;;8.45;5.25;;;;;;;;;;5047077;28;20017;-72
2023/07/23 11:36:41;;;;;;;7.75;5.47;;;;;;;;;;5041981;28;20112;-72
2023/07/23 11:39:07;;;;;;;8.55;4.97;;;;;;;;;;5050356;28;20032;-72
2023/07/23 11:41:34;;;;;;;10.45;5.18;;;;;;;;;;5045490;28;20120;-72
2023/07/23 11:44:03;;;;;;;8.82;5.22;;;;;;;;;;5047516;28;20098;-72
2023/07/23 11:46:36;;;;;;;8.13;5.50;;;;;;;;;;5043655;28;20467;-72
2023/07/23 11:49:03;;;;;;;7.88;4.78;;;;;;;;;;5053907;28;20055;-72
2023/07/23 11:51:29;;;;;;;8.73;5.57;;;;;;;;;;5044449;28;20438;-71
2023/07/23 11:54:00;;;;;;;8.13;5.00;;;;;;;;;;5042631;28;20470;-72
2023/07/23 11:56:25;;;;;;;10.60;5.80;;;;;;;;;;5047153;28;20397;-72
2023/07/23 11:58:51;;;;;;;11.25;6.03;;;;;;;;;;5046360;28;20033;-71
2023/07/23 12:01:16;;;;;;;9.77;5.60;;;;;;;;;;5046495;28;20020;-71
2023/07/23 12:03:44;;;;;;;7.53;5.28;;;;;;;;;;5052268;28;20114;-72
2023/07/23 12:06:14;;;;;;;10.80;5.28;;;;;;;;;;5046252;28;20013;-72
2023/07/23 12:08:39;;;;;;;10.30;5.47;;;;;;;;;;5042212;28;20017;-71
2023/07/23 12:11:09;;;;;;;12.02;5.57;;;;;;;;;;5053015;28;20066;-72
2023/07/23 12:13:38;;;;;;;9.18;5.20;;;;;;;;;;5051129;28;20021;-72
2023/07/23 12:16:11;;;;;;;9.07;5.18;;;;;;;;;;5042570;28;20485;-72
2023/07/23 12:18:43;;;;;;;10.82;5.38;;;;;;;;;;5046990;28;20021;-72
2023/07/23 12:21:08;;;;;;;10.10;6.43;;;;;;;;;;5046472;28;20025;-73
2023/07/23 12:23:41;;;;;;;10.40;5.13;;;;;;;;;;5045077;28;20024;-71
2023/07/23 12:26:06;;;;;;;9.55;5.72;;;;;;;;;;5049468;28;20022;-72
2023/07/23 12:28:31;;;;;;;11.75;6.53;;;;;;;;;;5045483;28;20021;-72
2023/07/23 12:30:56;;;;;;;11.63;7.13;;;;;;;;;;5045291;28;20040;-72
2023/07/23 12:33:22;;;;;;;14.05;7.45;;;;;;;;;;5045304;28;20025;-72
2023/07/23 12:35:47;;;;;;;17.45;7.28;;;;;;;;;;5043383;28;20029;-72
2023/07/23 12:38:12;;;;;;;13.98;7.00;;;;;;;;;;5051004;28;20104;-72
2023/07/23 12:40:38;;;;;;;17.10;7.72;;;;;;;;;;5044381;28;20071;-71
2023/07/23 12:43:03;;;;;;;14.60;7.25;;;;;;;;;;5045629;28;20024;-71
2023/07/23 12:45:28;;;;;;;13.88;8.27;;;;;;;;;;5044131;28;20501;-72
2023/07/23 12:47:53;;;;;;;19.58;8.25;;;;;;;;;;5046361;28;20034;-72
2023/07/23 12:50:19;;;;;;;14.52;7.85;;;;;;;;;;5046089;28;20450;-72
2023/07/23 12:52:44;;;;;;;16.15;7.53;;;;;;;;;;5050628;28;20021;-71
2023/07/23 12:55:09;;;;;;;12.25;7.65;;;;;;;;;;5043768;28;20402;-72
2023/07/23 12:57:35;;;;;;;12.23;6.97;;;;;;;;;;5046029;28;20044;-72
2023/07/23 13:00:00;;;;;;;10.70;6.57;;;;;;;;;;5044447;28;20025;-73
2023/07/23 13:02:25;;;;;;;8.15;5.20;;;;;;;;;;5052042;28;20403;-72
2023/07/23 13:04:50;;;;;;;12.48;6.85;;;;;;;;;;5043027;28;20055;-72
2023/07/23 13:07:16;;;;;;;11.63;6.30;;;;;;;;;;5045086;28;20043;-72
2023/07/23 13:09:41;;;;;;;13.48;5.95;;;;;;;;;;5042688;28;20104;-72
2023/07/23 13:12:06;;;;;;;13.10;5.82;;;;;;;;;;5045554;28;20402;-72
2023/07/23 13:14:32;;;;;;;12.05;6.13;;;;;;;;;;5036412;28;20025;-72
2023/07/23 13:16:57;;;;;;;9.95;5.15;;;;;;;;;;5043951;28;20078;-72
2023/07/23 13:19:22;;;;;;;9.40;4.97;;;;;;;;;;5045024;28;20024;-72
2023/07/23 13:21:48;;;;;;;10.60;5.18;;;;;;;;;;5042134;28;20085;-72
2023/07/23 13:24:13;;;;;;;12.23;5.45;;;;;;;;;;5049257;28;20025;-71
2023/07/23 13:26:38;;;;;;;11.05;5.28;;;;;;;;;;5042450;28;20021;-71
2023/07/23 13:29:04;;;;;;;8.88;5.15;;;;;;;;;;5043538;28;20494;-72
2023/07/23 13:31:29;;;;;;;7.97;4.75;;;;;;;;;;5043830;28;20534;-72
2023/07/23 13:33:54;;;;;;;8.63;4.57;;;;;;;;;;5044261;28;20159;-72
2023/07/23 13:36:20;;;;;;;10.55;5.10;;;;;;;;;;5042207;28;20158;-72
2023/07/23 13:38:45;;;;;;;10.88;5.00;;;;;;;;;;5049841;28;20017;-72
2023/07/23 13:41:11;;;;;;;8.25;4.55;;;;;;;;;;5044638;28;20017;-72
2023/07/23 13:43:36;;;;;;;11.35;6.22;;;;;;;;;;5041860;28;20017;-71
2023/07/23 13:46:01;;;;;;;12.77;5.50;;;;;;;;;;5044536;28;20026;-71
2023/07/23 13:48:26;;;;;;;12.77;5.28;;;;;;;;;;5041405;28;20083;-75
2023/07/23 14:21:54;;;;;;;8.93;5.72;;;;;;;;;;5827724;22;20101;-68
2023/07/23 14:24:20;;;;;;;11.15;5.32;;;;;;;;;;5074840;28;20023;-68
2023/07/23 14:26:45;;;;;;;7.85;5.30;;;;;;;;;;5093674;28;20023;-68
2023/07/23 14:29:11;;;;;;;11.38;5.35;;;;;;;;;;5091265;22;20500;-68
2023/07/23 14:31:36;;;;;;;14.50;5.20;;;;;;;;;;5113889;28;20024;-68
2023/07/23 14:34:01;;;;;;;10.02;5.00;;;;;;;;;;5113539;28;20016;-68
2023/07/23 14:36:27;;;;;;;13.10;5.88;;;;;;;;;;5113555;28;20476;-68
2023/07/23 14:38:52;;;;;;;13.23;5.97;;;;;;;;;;5113509;28;20020;-68
2023/07/23 14:41:17;;;;;;;10.27;5.30;;;;;;;;;;5095214;28;20020;-68
2023/07/23 14:43:42;;;;;;;12.25;5.40;;;;;;;;;;5113776;22;20112;-70
2023/07/23 14:46:08;;;;;;;12.38;5.75;;;;;;;;;;5075366;28;20492;-77
2023/07/23 14:48:33;;;;;;;11.05;5.85;;;;;;;;;;5093784;28;20055;-78
2023/07/23 14:50:58;;;;;;;14.10;7.53;;;;;;;;;;5075731;28;20056;-76
2023/07/23 14:53:24;;;;;;;12.07;5.93;;;;;;;;;;5075462;28;20028;-77
2023/07/23 14:55:49;;;;;;;17.35;6.28;;;;;;;;;;5092847;28;20031;-76
2023/07/23 14:58:14;;;;;;;11.77;5.95;;;;;;;;;;5077331;28;20024;-78
2023/07/23 15:00:44;;;;;;;12.95;7.00;;;;;;;;;;5075893;28;20027;-78
2023/07/23 15:03:13;;;;;;;20.10;6.80;;;;;;;;;;5058890;28;20103;-77